Time;durP1;ratioP1;P1;durP2;ratioP2;P2;SDS_P1;SDS_P2;PMS_P1;PMS_P2;Temp;Humidity;BMP_temperature;BMP_pressure;BME280_temperature;BME280_humidity;BME280_pressure;Samples;Min_cycle;Max_cycle;Signal;HPM_P1;HPM_P2
2024/04/08 00:00:29;;;;;;;4.62;0.98;;;19.80;55.90;;;;;;2340325;53;20945;-69
2024/04/08 00:02:56;;;;;;;1.85;0.70;;;19.80;56.00;;;;;;2339979;53;21072;-68
2024/04/08 00:05:22;;;;;;;5.75;1.12;;;19.70;56.00;;;;;;2340645;53;21422;-69
2024/04/08 00:07:49;;;;;;;3.00;1.42;;;19.70;56.00;;;;;;2340338;53;21936;-69
2024/04/08 00:10:15;;;;;;;3.83;1.15;;;19.70;56.10;;;;;;2340663;53;20949;-69
2024/04/08 00:12:44;;;;;;;2.45;0.82;;;19.70;56.10;;;;;;2339657;53;20941;-69
2024/04/08 00:15:12;;;;;;;2.35;0.85;;;19.60;56.20;;;;;;2340653;53;20941;-69
2024/04/08 00:17:40;;;;;;;3.92;1.10;;;19.70;56.30;;;;;;2340443;53;21008;-69
2024/04/08 00:20:09;;;;;;;2.37;0.70;;;19.60;56.20;;;;;;2339700;53;20980;-70
2024/04/08 00:22:35;;;;;;;2.65;0.85;;;19.60;56.30;;;;;;2340230;53;20952;-70
2024/04/08 00:25:01;;;;;;;3.05;1.10;;;19.60;56.40;;;;;;2339974;53;21379;-71
2024/04/08 00:27:28;;;;;;;3.25;0.98;;;19.60;56.40;;;;;;2340240;53;20972;-69
2024/04/08 00:29:59;;;;;;;3.47;0.82;;;19.60;56.40;;;;;;2337213;53;20905;-69
2024/04/08 00:32:25;;;;;;;4.32;1.00;;;19.60;56.50;;;;;;2340726;53;21028;-69
2024/04/08 00:34:51;;;;;;;4.22;1.08;;;19.60;56.60;;;;;;2339903;53;21465;-69
2024/04/08 00:37:17;;;;;;;5.45;1.00;;;19.60;56.70;;;;;;2340579;53;21065;-71
2024/04/08 00:39:44;;;;;;;4.03;1.20;;;19.60;56.70;;;;;;2339886;53;21386;-72
2024/04/08 00:42:12;;;;;;;4.53;1.45;;;19.60;56.80;;;;;;2340201;53;21004;-69
2024/04/08 00:44:38;;;;;;;4.18;1.20;;;19.60;56.90;;;;;;2339759;53;20941;-69
2024/04/08 00:47:05;;;;;;;6.07;1.37;;;19.50;56.80;;;;;;2339409;53;20976;-69
2024/04/08 00:49:31;;;;;;;5.25;1.60;;;19.50;56.80;;;;;;2339686;53;21320;-69
2024/04/08 00:51:57;;;;;;;4.93;1.25;;;19.50;56.90;;;;;;2339737;54;20969;-69
2024/04/08 00:54:26;;;;;;;3.50;0.82;;;19.50;57.50;;;;;;2555321;53;20967;-69
2024/04/08 00:56:55;;;;;;;3.00;0.80;;;19.50;56.90;;;;;;2307970;54;21072;-70
2024/04/08 00:59:21;;;;;;;3.65;1.10;;;19.50;56.90;;;;;;2319248;53;20968;-69
2024/04/08 01:01:49;;;;;;;3.50;1.00;;;19.50;56.80;;;;;;2339173;53;20940;-69
2024/04/08 01:04:15;;;;;;;2.62;1.00;;;19.50;56.80;;;;;;2340159;53;21899;-68
2024/04/08 01:06:42;;;;;;;3.45;1.20;;;19.40;56.80;;;;;;2340895;53;21300;-68
2024/04/08 01:09:08;;;;;;;2.85;0.82;;;19.40;56.80;;;;;;2340115;53;20981;-69
2024/04/08 01:11:37;;;;;;;3.42;0.90;;;19.40;56.80;;;;;;2340237;53;20964;-70
2024/04/08 01:14:04;;;;;;;3.53;1.30;;;19.30;56.70;;;;;;2339743;53;21221;-68
2024/04/08 01:16:30;;;;;;;4.78;1.33;;;19.30;56.80;;;;;;2340159;53;20953;-71
2024/04/08 01:18:57;;;;;;;3.40;1.35;;;19.20;56.80;;;;;;2339977;53;21431;-69
2024/04/08 01:21:23;;;;;;;3.78;1.37;;;19.20;56.80;;;;;;2340547;53;20956;-69
2024/04/08 01:23:49;;;;;;;4.22;1.55;;;19.20;56.90;;;;;;2339748;53;21021;-68
2024/04/08 01:26:17;;;;;;;5.18;1.67;;;19.20;56.90;;;;;;2340067;53;21088;-70
2024/04/08 01:28:44;;;;;;;3.72;1.30;;;19.10;56.80;;;;;;2339715;53;20969;-68
2024/04/08 01:31:11;;;;;;;4.28;1.20;;;19.10;56.80;;;;;;2340475;53;20953;-70
2024/04/08 01:33:42;;;;;;;4.93;1.10;;;19.00;56.80;;;;;;2335619;53;21010;-71
2024/04/08 01:36:09;;;;;;;3.95;1.25;;;19.00;56.90;;;;;;2323077;53;21008;-69
2024/04/08 01:38:39;;;;;;;4.65;1.37;;;19.00;56.90;;;;;;2340199;53;21727;-71
2024/04/08 01:41:05;;;;;;;3.03;1.30;;;18.90;56.90;;;;;;2339674;53;20985;-69
2024/04/08 01:43:32;;;;;;;3.17;1.05;;;18.90;57.00;;;;;;2340486;53;20980;-70
2024/04/08 01:46:00;;;;;;;3.75;0.95;;;18.80;57.10;;;;;;2330872;53;21293;-68
2024/04/08 01:48:26;;;;;;;4.40;1.17;;;18.80;57.10;;;;;;2327056;54;20984;-68
2024/04/08 01:50:53;;;;;;;3.92;1.00;;;18.80;57.10;;;;;;2339805;53;20913;-69
2024/04/08 01:53:19;;;;;;;3.00;1.00;;;18.80;57.20;;;;;;2340858;53;21000;-69
2024/04/08 01:55:45;;;;;;;3.08;1.00;;;18.80;57.20;;;;;;2339097;53;21076;-68
2024/04/08 01:58:11;;;;;;;3.15;1.10;;;18.70;57.20;;;;;;2340526;53;20961;-69
2024/04/08 02:00:38;;;;;;;4.37;1.33;;;18.70;57.10;;;;;;2340507;53;20905;-69
2024/04/08 02:03:05;;;;;;;6.35;1.40;;;18.60;57.10;;;;;;2340477;53;21897;-70
2024/04/08 02:05:31;;;;;;;4.93;1.25;;;18.60;57.10;;;;;;2340744;53;20992;-68
2024/04/08 02:07:58;;;;;;;3.95;1.02;;;18.60;57.10;;;;;;2340496;53;20925;-69
2024/04/08 02:10:25;;;;;;;6.03;1.12;;;18.50;57.10;;;;;;2341018;53;20981;-69
2024/04/08 02:12:51;;;;;;;4.65;1.30;;;18.50;57.10;;;;;;2340119;53;20949;-69
2024/04/08 02:15:17;;;;;;;2.92;1.10;;;18.50;57.20;;;;;;2340611;53;21088;-70
2024/04/08 02:17:44;;;;;;;4.28;1.40;;;18.50;57.20;;;;;;2340486;53;20941;-70
2024/04/08 02:20:10;;;;;;;3.62;1.30;;;18.40;57.20;;;;;;2340642;53;21292;-69
2024/04/08 02:22:37;;;;;;;4.05;1.35;;;18.40;57.40;;;;;;2340829;53;21060;-69
2024/04/08 02:25:04;;;;;;;4.00;1.62;;;18.30;57.40;;;;;;2339994;53;20929;-68
2024/04/08 02:27:30;;;;;;;4.07;1.20;;;18.30;57.40;;;;;;2340310;53;21072;-71
2024/04/08 02:29:57;;;;;;;3.90;1.55;;;18.30;57.50;;;;;;2339593;53;21853;-69
2024/04/08 02:32:24;;;;;;;4.20;1.80;;;18.30;57.60;;;;;;2340926;53;21256;-70
2024/04/08 02:34:50;;;;;;;4.32;1.40;;;18.20;57.60;;;;;;2339782;53;21013;-69
2024/04/08 02:37:16;;;;;;;4.05;1.17;;;18.20;57.60;;;;;;2341339;53;21025;-68
2024/04/08 02:39:43;;;;;;;3.58;1.15;;;18.20;57.70;;;;;;2316557;54;20976;-69
2024/04/08 02:42:10;;;;;;;4.97;1.20;;;18.20;57.80;;;;;;2340008;53;21455;-69
2024/04/08 02:44:36;;;;;;;2.67;0.95;;;18.20;57.80;;;;;;2340282;53;21466;-70
2024/04/08 02:47:02;;;;;;;5.75;1.60;;;18.20;57.80;;;;;;2340570;53;20999;-70
2024/04/08 02:49:32;;;;;;;5.70;1.27;;;18.20;57.80;;;;;;2341484;53;20926;-69
2024/04/08 02:51:59;;;;;;;3.00;1.05;;;18.20;57.90;;;;;;2339471;53;21730;-69
2024/04/08 02:54:25;;;;;;;4.68;1.12;;;18.20;57.90;;;;;;2341756;53;21328;-70
2024/04/08 02:56:52;;;;;;;5.70;1.73;;;18.10;57.80;;;;;;2340147;53;21024;-70
2024/04/08 02:59:18;;;;;;;4.85;0.98;;;18.10;57.90;;;;;;2341222;53;21414;-72
2024/04/08 03:01:44;;;;;;;3.78;1.10;;;18.10;57.90;;;;;;2336396;53;21681;-70
2024/04/08 03:04:11;;;;;;;3.85;1.10;;;18.10;58.00;;;;;;2319870;53;21020;-71
2024/04/08 03:06:37;;;;;;;3.40;1.25;;;18.10;58.00;;;;;;2340444;53;20968;-69
2024/04/08 03:09:05;;;;;;;4.03;1.00;;;18.00;57.90;;;;;;2340696;53;21001;-68
2024/04/08 03:11:31;;;;;;;5.25;1.00;;;18.00;58.00;;;;;;2340604;53;21316;-68
2024/04/08 03:13:58;;;;;;;3.53;1.33;;;18.10;58.10;;;;;;2340274;53;20945;-68
2024/04/08 03:16:24;;;;;;;4.70;1.35;;;18.10;58.10;;;;;;2340991;53;20945;-71
2024/04/08 03:18:51;;;;;;;5.05;1.33;;;18.00;58.10;;;;;;2340127;53;21739;-68
2024/04/08 03:21:17;;;;;;;3.08;1.00;;;18.00;58.10;;;;;;2340657;53;21084;-69
2024/04/08 03:23:44;;;;;;;2.72;1.10;;;18.00;58.10;;;;;;2340180;53;21298;-70
2024/04/08 03:26:12;;;;;;;3.22;0.80;;;18.00;58.10;;;;;;2339836;53;20973;-69
2024/04/08 03:28:39;;;;;;;4.87;1.40;;;18.00;58.10;;;;;;2340154;53;21253;-69
2024/04/08 03:31:06;;;;;;;4.93;1.35;;;18.00;58.20;;;;;;2340267;53;20969;-70
2024/04/08 03:33:33;;;;;;;4.60;1.05;;;18.00;58.30;;;;;;2340778;53;21040;-71
2024/04/08 03:36:00;;;;;;;3.65;1.30;;;18.00;58.30;;;;;;2325062;53;21021;-68
2024/04/08 03:38:27;;;;;;;3.03;1.30;;;18.00;58.30;;;;;;2331576;53;21333;-69
2024/04/08 03:41:00;;;;;;;2.72;1.00;;;18.00;58.30;;;;;;2340111;53;20925;-68
2024/04/08 03:43:30;;;;;;;3.58;1.17;;;18.00;58.30;;;;;;2340048;53;21212;-69
2024/04/08 03:45:57;;;;;;;5.40;1.77;;;18.00;58.30;;;;;;2340406;53;20952;-68
2024/04/08 03:48:23;;;;;;;5.70;1.12;;;18.00;58.30;;;;;;2339638;53;20996;-69
2024/04/08 03:50:51;;;;;;;3.10;1.27;;;18.00;58.30;;;;;;2339842;53;21541;-68
2024/04/08 03:53:18;;;;;;;2.53;0.90;;;18.00;58.30;;;;;;2340661;53;21021;-68
2024/04/08 03:55:45;;;;;;;3.03;1.00;;;18.00;58.30;;;;;;2340472;53;20962;-71
2024/04/08 03:58:11;;;;;;;3.15;1.00;;;18.00;58.30;;;;;;2336884;53;21005;-69
2024/04/08 04:00:37;;;;;;;3.72;0.95;;;18.00;58.30;;;;;;2340425;53;21364;-68
2024/04/08 04:03:04;;;;;;;3.83;1.12;;;18.00;58.30;;;;;;2340573;53;20985;-68
2024/04/08 04:05:31;;;;;;;4.47;0.88;;;17.90;58.20;;;;;;2340203;53;20960;-69
2024/04/08 04:07:57;;;;;;;4.50;0.95;;;18.00;58.30;;;;;;2339951;53;21454;-69
2024/04/08 04:10:24;;;;;;;3.30;1.00;;;17.90;58.20;;;;;;2340552;53;20953;-69
2024/04/08 04:12:50;;;;;;;5.25;1.92;;;17.90;58.20;;;;;;2309138;54;21462;-70
2024/04/08 04:15:17;;;;;;;2.97;1.30;;;17.90;58.20;;;;;;2339508;53;20969;-69
2024/04/08 04:17:46;;;;;;;3.33;1.20;;;17.90;58.10;;;;;;2340298;53;21029;-68
2024/04/08 04:20:15;;;;;;;5.75;1.25;;;17.90;58.10;;;;;;2340307;53;20942;-71
2024/04/08 04:22:42;;;;;;;4.50;1.42;;;17.80;57.90;;;;;;2340666;53;20965;-70
2024/04/08 04:25:08;;;;;;;3.30;0.75;;;17.80;58.00;;;;;;2340512;53;20997;-69
2024/04/08 04:27:35;;;;;;;2.62;1.02;;;17.80;57.90;;;;;;2340652;53;20945;-70
2024/04/08 04:30:01;;;;;;;6.00;1.23;;;17.70;57.90;;;;;;2340524;53;21009;-69
2024/04/08 04:32:28;;;;;;;5.32;1.37;;;17.70;57.90;;;;;;2337890;53;21534;-71
2024/04/08 04:34:54;;;;;;;3.10;0.80;;;17.70;57.90;;;;;;2340256;53;20929;-69
2024/04/08 04:37:21;;;;;;;6.12;1.33;;;17.60;57.90;;;;;;2335342;53;20973;-68
2024/04/08 04:39:51;;;;;;;3.20;1.10;;;17.70;58.00;;;;;;2321880;53;21048;-71
2024/04/08 04:42:17;;;;;;;2.70;1.05;;;17.60;57.90;;;;;;2340130;53;20981;-68
2024/04/08 04:44:44;;;;;;;2.97;1.30;;;17.60;58.00;;;;;;2344573;53;20977;-68
2024/04/08 04:47:10;;;;;;;5.62;1.30;;;17.50;57.90;;;;;;2313461;54;20974;-69
2024/04/08 04:49:36;;;;;;;3.15;1.02;;;17.50;58.00;;;;;;2340716;53;21008;-68
2024/04/08 04:52:06;;;;;;;4.10;1.12;;;17.50;58.00;;;;;;2339382;53;20972;-68
2024/04/08 04:54:33;;;;;;;2.83;1.12;;;17.40;57.90;;;;;;2340489;53;21446;-69
2024/04/08 04:57:00;;;;;;;3.87;1.00;;;17.40;57.90;;;;;;2340382;53;21041;-68
2024/04/08 04:59:26;;;;;;;4.47;1.40;;;17.40;57.90;;;;;;2340959;53;21045;-68
2024/04/08 05:01:52;;;;;;;3.72;1.10;;;17.30;57.90;;;;;;2340460;53;21395;-69
2024/04/08 05:04:19;;;;;;;4.28;1.35;;;17.30;58.00;;;;;;2340563;53;21099;-68
2024/04/08 05:06:46;;;;;;;3.65;1.30;;;17.30;58.00;;;;;;2340748;53;21869;-70
2024/04/08 05:09:13;;;;;;;3.15;1.30;;;17.20;58.00;;;;;;2340567;53;21001;-69
2024/04/08 05:11:39;;;;;;;4.37;1.23;;;17.20;58.10;;;;;;2306271;53;20923;-68
2024/04/08 05:14:06;;;;;;;5.03;1.40;;;17.20;58.10;;;;;;2308316;54;20917;-69
2024/04/08 05:16:32;;;;;;;3.30;1.30;;;17.10;58.00;;;;;;2308457;54;20962;-70
2024/04/08 05:18:59;;;;;;;2.87;1.10;;;17.10;58.10;;;;;;2308541;54;20958;-69
2024/04/08 05:21:28;;;;;;;4.00;1.40;;;17.10;58.10;;;;;;2308527;54;20953;-69
2024/04/08 05:23:55;;;;;;;3.97;1.23;;;17.00;58.00;;;;;;2308877;54;21680;-70
2024/04/08 05:26:21;;;;;;;3.50;1.33;;;17.00;58.10;;;;;;2308482;54;21478;-69
2024/04/08 05:28:49;;;;;;;4.45;1.35;;;17.00;58.10;;;;;;2308206;54;21824;-69
2024/04/08 05:31:15;;;;;;;2.92;1.20;;;17.00;58.20;;;;;;2308337;54;20939;-68
2024/04/08 05:33:42;;;;;;;4.32;1.48;;;16.90;58.20;;;;;;2308338;54;20931;-67
2024/04/08 05:36:09;;;;;;;4.45;1.83;;;16.90;58.20;;;;;;2331718;55;20936;-70
2024/04/08 05:38:35;;;;;;;4.53;1.80;;;16.90;58.30;;;;;;2331417;55;20964;-69
2024/04/08 05:41:04;;;;;;;4.15;1.50;;;16.90;58.30;;;;;;2313379;54;20927;-68
2024/04/08 05:43:33;;;;;;;3.83;1.42;;;16.90;58.30;;;;;;2340959;53;21442;-68
2024/04/08 05:46:00;;;;;;;3.80;1.65;;;16.80;58.30;;;;;;2340164;53;21035;-68
2024/04/08 05:48:29;;;;;;;3.15;1.40;;;16.80;58.40;;;;;;2340571;53;21379;-68
2024/04/08 05:50:56;;;;;;;3.80;1.40;;;16.80;58.40;;;;;;2340505;53;20925;-69
2024/04/08 05:53:23;;;;;;;5.72;1.52;;;16.80;58.40;;;;;;2340981;53;21457;-69
2024/04/08 05:55:50;;;;;;;4.55;1.25;;;16.80;58.50;;;;;;2340678;53;22132;-69
2024/04/08 05:58:17;;;;;;;3.58;1.45;;;16.80;58.60;;;;;;2341004;53;21430;-68
2024/04/08 06:00:45;;;;;;;3.28;1.40;;;16.90;58.70;;;;;;2341007;53;21529;-69
2024/04/08 06:03:14;;;;;;;6.80;1.60;;;16.80;58.70;;;;;;2339552;53;21486;-71
2024/04/08 06:05:41;;;;;;;5.28;1.27;;;16.80;58.80;;;;;;2340066;53;21451;-69
2024/04/08 06:08:07;;;;;;;3.83;1.33;;;16.80;58.80;;;;;;2340994;53;20969;-70
2024/04/08 06:10:36;;;;;;;4.43;1.62;;;16.80;58.90;;;;;;2339989;53;20937;-70
2024/04/08 06:13:03;;;;;;;6.78;2.87;;;16.80;59.00;;;;;;2316545;53;20974;-71
2024/04/08 06:15:34;;;;;;;10.45;4.80;;;16.90;59.10;;;;;;2340448;53;20929;-68
2024/04/08 06:18:00;;;;;;;15.35;6.90;;;16.90;59.20;;;;;;2322025;54;21028;-68
2024/04/08 06:20:27;;;;;;;15.75;7.10;;;16.90;59.20;;;;;;2314698;54;21882;-69
2024/04/08 06:22:54;;;;;;;15.30;7.35;;;17.00;59.30;;;;;;2340582;53;21162;-71
2024/04/08 06:25:20;;;;;;;14.40;6.40;;;17.00;59.30;;;;;;2330444;53;20989;-67
2024/04/08 06:27:47;;;;;;;12.95;5.93;;;17.00;59.40;;;;;;2332546;54;21013;-69
2024/04/08 06:30:14;;;;;;;12.05;4.90;;;17.10;59.50;;;;;;2314820;53;21581;-70
2024/04/08 06:32:41;;;;;;;9.35;3.97;;;17.10;59.50;;;;;;2316272;54;21448;-68
2024/04/08 06:35:08;;;;;;;7.15;3.20;;;17.20;59.70;;;;;;2308551;53;20963;-69
2024/04/08 06:37:35;;;;;;;6.28;2.58;;;17.20;59.70;;;;;;2308765;54;20916;-69
2024/04/08 06:40:01;;;;;;;4.53;2.03;;;17.30;59.90;;;;;;2308883;54;20940;-69
2024/04/08 06:42:27;;;;;;;3.47;1.62;;;17.30;59.90;;;;;;2317389;54;20948;-68
2024/04/08 06:44:54;;;;;;;3.45;1.33;;;17.40;60.00;;;;;;2312294;54;20924;-69
2024/04/08 06:47:20;;;;;;;4.85;1.40;;;17.50;60.00;;;;;;2308310;53;21562;-68
2024/04/08 06:49:47;;;;;;;3.05;1.27;;;17.50;60.10;;;;;;2309157;54;21012;-68
2024/04/08 06:52:13;;;;;;;4.70;0.95;;;17.60;60.30;;;;;;2308455;54;21508;-68
2024/04/08 06:54:40;;;;;;;2.45;0.88;;;17.70;60.50;;;;;;2308977;54;22050;-69
2024/04/08 06:57:07;;;;;;;5.32;0.90;;;17.90;60.70;;;;;;2308774;54;21473;-71
2024/04/08 06:59:33;;;;;;;4.05;1.00;;;17.90;60.70;;;;;;2308995;54;20955;-68
2024/04/08 07:02:03;;;;;;;3.60;1.10;;;18.00;60.70;;;;;;2308409;53;20952;-71
2024/04/08 07:04:31;;;;;;;3.80;1.00;;;18.10;60.80;;;;;;2308755;54;21022;-69
2024/04/08 07:06:58;;;;;;;2.90;0.80;;;18.30;61.20;;;;;;2308389;54;21003;-69
2024/04/08 07:09:27;;;;;;;2.95;0.75;;;18.40;61.30;;;;;;2308698;54;21564;-70
2024/04/08 07:11:59;;;;;;;2.70;1.00;;;18.50;61.30;;;;;;2308614;54;20947;-69
2024/04/08 07:14:25;;;;;;;2.60;0.90;;;18.60;61.40;;;;;;2308870;54;20963;-69
2024/04/08 07:16:51;;;;;;;3.50;1.02;;;18.70;61.50;;;;;;2308747;54;21008;-69
2024/04/08 07:19:18;;;;;;;2.37;0.90;;;18.90;61.70;;;;;;2308123;54;20935;-69
2024/04/08 07:21:44;;;;;;;3.87;1.08;;;19.00;61.50;;;;;;2308317;54;20976;-70
2024/04/08 07:24:10;;;;;;;5.90;1.23;;;19.10;61.50;;;;;;2308223;54;21000;-70
2024/04/08 07:26:37;;;;;;;2.83;1.02;;;19.30;61.60;;;;;;2308808;54;20943;-70
2024/04/08 07:29:03;;;;;;;4.10;1.25;;;19.40;61.60;;;;;;2308458;53;21023;-68
2024/04/08 07:31:30;;;;;;;3.70;1.08;;;19.50;61.80;;;;;;2312637;54;21035;-71
2024/04/08 07:33:56;;;;;;;4.62;1.20;;;19.70;62.00;;;;;;2304363;54;21726;-69
2024/04/08 07:36:22;;;;;;;2.45;1.08;;;19.90;62.00;;;;;;2308762;54;21273;-70
2024/04/08 07:38:49;;;;;;;4.60;1.10;;;20.00;62.70;;;;;;2308322;54;20998;-71
2024/04/08 07:41:22;;;;;;;3.42;1.20;;;20.20;62.20;;;;;;2308416;54;21247;-71
2024/04/08 07:43:48;;;;;;;6.05;1.20;;;20.30;62.10;;;;;;2308299;54;21909;-69
2024/04/08 07:46:15;;;;;;;3.33;1.23;;;20.50;62.20;;;;;;2308640;54;21876;-68
2024/04/08 07:48:41;;;;;;;4.60;1.10;;;20.70;62.20;;;;;;2308706;54;20927;-70
2024/04/08 07:51:08;;;;;;;6.20;1.37;;;20.80;62.10;;;;;;2308172;54;21359;-69
2024/04/08 07:53:36;;;;;;;4.15;1.30;;;21.00;61.90;;;;;;2308560;54;21002;-71
2024/04/08 07:56:02;;;;;;;5.05;1.10;;;21.10;61.80;;;;;;2308215;54;21453;-69
2024/04/08 07:58:30;;;;;;;4.40;1.20;;;21.30;61.50;;;;;;2308220;54;21362;-69
2024/04/08 08:01:00;;;;;;;5.28;1.30;;;21.40;61.10;;;;;;2308741;54;21083;-70
2024/04/08 08:03:26;;;;;;;2.92;0.90;;;21.60;60.80;;;;;;2322532;53;21990;-72
2024/04/08 08:05:53;;;;;;;4.18;1.00;;;21.70;60.50;;;;;;2340719;53;21009;-70
2024/04/08 08:08:20;;;;;;;2.65;0.80;;;21.80;60.40;;;;;;2318013;53;21568;-72
2024/04/08 08:10:46;;;;;;;2.30;0.60;;;22.00;60.30;;;;;;2340090;53;21088;-71
2024/04/08 08:13:12;;;;;;;3.25;0.90;;;22.10;59.90;;;;;;2340128;54;21033;-70
2024/04/08 08:15:39;;;;;;;2.92;0.85;;;22.30;59.80;;;;;;2339866;53;21009;-69
2024/04/08 08:18:05;;;;;;;6.60;1.15;;;22.40;59.50;;;;;;2340287;53;21045;-70
2024/04/08 08:20:33;;;;;;;6.75;1.08;;;22.50;59.30;;;;;;2340658;53;21048;-70
2024/04/08 08:23:00;;;;;;;3.78;0.93;;;22.60;59.30;;;;;;2340729;53;21020;-72
2024/04/08 08:25:29;;;;;;;3.95;1.00;;;22.70;59.30;;;;;;2340027;53;20992;-70
2024/04/08 08:27:56;;;;;;;3.67;0.98;;;22.80;59.00;;;;;;2340697;53;20957;-70
2024/04/08 08:30:22;;;;;;;3.17;1.00;;;23.00;59.00;;;;;;2340586;53;20961;-69
2024/04/08 08:32:50;;;;;;;2.75;1.00;;;23.10;58.90;;;;;;2341024;53;21278;-71
2024/04/08 08:35:16;;;;;;;1.77;0.62;;;23.20;58.70;;;;;;2340598;53;21742;-69
2024/04/08 08:37:42;;;;;;;2.28;0.85;;;23.30;58.60;;;;;;2340658;53;21036;-69
2024/04/08 08:40:10;;;;;;;4.28;1.30;;;23.50;58.50;;;;;;2340674;53;21288;-70
2024/04/08 08:42:36;;;;;;;5.30;1.40;;;23.60;58.40;;;;;;2311711;54;21040;-70
2024/04/08 08:45:05;;;;;;;8.07;1.60;;;23.70;58.40;;;;;;2322827;53;21296;-70
2024/04/08 08:47:33;;;;;;;3.90;1.50;;;23.80;58.20;;;;;;2340106;53;20977;-69
2024/04/08 08:50:02;;;;;;;4.05;1.23;;;23.90;58.00;;;;;;2341049;53;20941;-70
2024/04/08 08:52:29;;;;;;;6.75;1.20;;;24.00;57.90;;;;;;2340832;53;20992;-68
2024/04/08 08:54:55;;;;;;;3.85;1.17;;;24.20;57.80;;;;;;2340470;53;20929;-70
2024/04/08 08:57:25;;;;;;;5.68;1.33;;;24.30;57.60;;;;;;2340255;53;21229;-70
2024/04/08 08:59:51;;;;;;;4.07;0.90;;;24.40;57.60;;;;;;2313525;55;20894;-69
2024/04/08 09:02:17;;;;;;;4.62;1.23;;;24.50;57.60;;;;;;2340298;53;20929;-70
2024/04/08 09:04:43;;;;;;;7.28;1.27;;;24.60;57.20;;;;;;2316994;54;21811;-70
2024/04/08 09:07:10;;;;;;;2.92;1.02;;;24.80;57.10;;;;;;2314306;54;20960;-70
2024/04/08 09:09:36;;;;;;;4.43;1.20;;;24.90;57.10;;;;;;2308570;54;20944;-69
2024/04/08 09:12:03;;;;;;;4.12;1.30;;;25.00;57.10;;;;;;2308205;54;20995;-70
2024/04/08 09:14:30;;;;;;;4.93;1.00;;;25.10;56.90;;;;;;2308189;54;21256;-71
2024/04/08 09:17:08;;;;;;;3.65;1.20;;;25.20;57.00;;;;;;2308442;54;20979;-70
2024/04/08 09:19:39;;;;;;;6.40;1.25;;;25.20;56.00;;;;;;2308508;54;20999;-70
2024/04/08 09:22:05;;;;;;;3.78;1.48;;;25.40;56.20;;;;;;2308275;54;20972;-69
2024/04/08 09:24:34;;;;;;;2.55;1.05;;;25.50;56.20;;;;;;2308160;54;20963;-69
2024/04/08 09:27:01;;;;;;;3.72;1.08;;;25.70;56.10;;;;;;2335887;53;20924;-71
2024/04/08 09:29:29;;;;;;;3.90;1.23;;;25.80;56.10;;;;;;2330084;53;21032;-70
2024/04/08 09:32:00;;;;;;;4.47;1.33;;;25.90;56.10;;;;;;2327761;53;20969;-71
2024/04/08 09:34:27;;;;;;;5.72;1.67;;;26.00;56.10;;;;;;2339769;53;20965;-69
2024/04/08 09:36:57;;;;;;;4.57;1.00;;;26.10;55.80;;;;;;2340603;53;21800;-71
2024/04/08 09:39:23;;;;;;;4.10;1.20;;;26.30;55.20;;;;;;2340044;53;21364;-70
2024/04/08 09:41:50;;;;;;;3.00;1.10;;;26.40;55.10;;;;;;2340571;53;20963;-73
2024/04/08 09:44:17;;;;;;;2.65;0.85;;;26.60;54.90;;;;;;2340126;53;20973;-70
2024/04/08 09:46:55;;;;;;;2.70;0.85;;;26.70;54.60;;;;;;2340359;53;20961;-70
2024/04/08 09:49:22;;;;;;;3.53;0.80;;;26.80;53.90;;;;;;2339771;53;20976;-70
2024/04/08 09:51:48;;;;;;;2.65;0.70;;;26.80;53.90;;;;;;2340248;54;21826;-70
2024/04/08 09:54:14;;;;;;;2.50;0.75;;;26.90;53.70;;;;;;2340481;53;21053;-70
2024/04/08 09:56:41;;;;;;;2.62;0.77;;;27.00;53.70;;;;;;2340859;53;21257;-71
2024/04/08 09:59:17;;;;;;;3.15;0.80;;;27.00;53.70;;;;;;2339784;53;21746;-70
2024/04/08 10:01:43;;;;;;;3.40;0.73;;;27.10;53.10;;;;;;2340948;53;21004;-69
2024/04/08 10:04:15;;;;;;;2.33;0.82;;;27.10;53.20;;;;;;2340125;53;21032;-70
2024/04/08 10:06:44;;;;;;;2.60;0.88;;;27.10;52.70;;;;;;2340026;53;20945;-72
2024/04/08 10:09:11;;;;;;;3.92;0.80;;;27.20;53.10;;;;;;2341729;53;21024;-71
2024/04/08 10:11:37;;;;;;;2.65;0.93;;;27.20;52.90;;;;;;2340882;53;21528;-71
2024/04/08 10:14:14;;;;;;;1.98;0.68;;;27.20;52.40;;;;;;2329334;53;21001;-71
2024/04/08 10:16:40;;;;;;;7.30;0.90;;;27.20;52.30;;;;;;2330399;53;21493;-73
2024/04/08 10:19:07;;;;;;;4.65;1.15;;;27.20;52.00;;;;;;2343507;53;20969;-70
2024/04/08 10:21:37;;;;;;;3.28;0.90;;;27.20;51.60;;;;;;2340260;53;21827;-70
2024/04/08 10:24:03;;;;;;;3.85;1.02;;;27.20;51.60;;;;;;2340218;53;21017;-70
2024/04/08 10:26:34;;;;;;;2.72;0.90;;;27.10;51.50;;;;;;2340686;53;20929;-70
2024/04/08 10:29:00;;;;;;;3.05;0.75;;;27.10;51.20;;;;;;2340552;53;21324;-70
2024/04/08 10:31:29;;;;;;;2.37;0.80;;;27.10;51.80;;;;;;2340472;53;20969;-70
2024/04/08 10:33:56;;;;;;;3.67;0.88;;;27.10;51.10;;;;;;2317618;55;20957;-72
2024/04/08 10:36:23;;;;;;;3.42;0.90;;;27.00;51.30;;;;;;2340575;53;20969;-70
2024/04/08 10:38:49;;;;;;;1.65;0.62;;;27.00;51.30;;;;;;2340294;53;21525;-71
2024/04/08 10:41:16;;;;;;;2.80;0.70;;;27.00;51.30;;;;;;2339834;53;21004;-72
2024/04/08 10:43:42;;;;;;;2.30;0.85;;;27.00;51.40;;;;;;2340720;53;20937;-70
2024/04/08 10:46:14;;;;;;;4.10;1.12;;;27.00;51.20;;;;;;2338945;53;21604;-68
2024/04/08 10:48:40;;;;;;;3.17;0.88;;;27.00;51.10;;;;;;2340746;53;20953;-72
2024/04/08 10:51:09;;;;;;;4.22;0.80;;;27.00;51.40;;;;;;2321622;54;21037;-71
2024/04/08 10:53:41;;;;;;;3.03;0.70;;;27.00;51.60;;;;;;2336263;53;20941;-71
2024/04/08 10:56:08;;;;;;;1.75;0.65;;;27.00;51.60;;;;;;2322477;53;20985;-73
2024/04/08 10:58:37;;;;;;;2.42;0.60;;;27.00;51.40;;;;;;2337175;53;21402;-70
2024/04/08 11:01:04;;;;;;;4.12;1.00;;;27.00;51.50;;;;;;2340620;53;20914;-70
2024/04/08 11:03:31;;;;;;;4.72;0.80;;;27.00;51.40;;;;;;2330407;54;20949;-70
2024/04/08 11:05:57;;;;;;;3.40;1.15;;;27.00;51.50;;;;;;2327881;53;21069;-70
2024/04/08 11:08:24;;;;;;;3.95;1.00;;;27.00;51.40;;;;;;2340218;53;21932;-69
2024/04/08 11:10:52;;;;;;;2.25;0.73;;;27.00;51.30;;;;;;2339891;53;20921;-70
2024/04/08 11:13:19;;;;;;;4.70;1.02;;;27.10;51.30;;;;;;2319819;53;20957;-72
2024/04/08 11:15:50;;;;;;;7.47;0.93;;;27.10;51.20;;;;;;2338496;53;20957;-69
2024/04/08 11:18:18;;;;;;;2.30;0.98;;;27.20;51.10;;;;;;2340423;53;21277;-71
2024/04/08 11:20:45;;;;;;;2.12;0.80;;;27.20;51.10;;;;;;2327221;54;21017;-70
2024/04/08 11:23:13;;;;;;;3.03;0.80;;;27.20;51.60;;;;;;2331052;54;21502;-70
2024/04/08 11:25:40;;;;;;;4.47;0.90;;;27.30;51.70;;;;;;2340802;53;21843;-70
2024/04/08 11:28:08;;;;;;;3.20;0.90;;;27.40;51.60;;;;;;2341134;53;20953;-71
2024/04/08 11:30:37;;;;;;;3.58;0.82;;;27.40;51.40;;;;;;2341084;53;20921;-70
2024/04/08 11:33:08;;;;;;;3.20;0.80;;;27.50;51.40;;;;;;2337591;53;20957;-70
2024/04/08 11:35:34;;;;;;;4.57;1.00;;;27.50;51.30;;;;;;2322030;53;20961;-72
2024/04/08 11:38:03;;;;;;;3.35;1.00;;;27.60;51.00;;;;;;2341205;53;20973;-71
2024/04/08 11:40:35;;;;;;;3.78;1.00;;;27.60;50.90;;;;;;2341089;53;20951;-70
2024/04/08 11:43:04;;;;;;;4.57;0.80;;;27.70;51.00;;;;;;2340891;53;21012;-70
2024/04/08 11:45:31;;;;;;;6.18;0.88;;;27.80;50.90;;;;;;2338257;53;21333;-71
2024/04/08 11:47:58;;;;;;;4.10;0.88;;;27.70;50.80;;;;;;2310607;54;21007;-70
2024/04/08 11:50:25;;;;;;;3.12;1.00;;;27.90;51.10;;;;;;2308725;54;20972;-71
2024/04/08 11:52:52;;;;;;;2.08;0.80;;;27.90;50.80;;;;;;2319378;54;21466;-71
2024/04/08 11:55:21;;;;;;;5.05;0.82;;;28.00;50.70;;;;;;2306564;54;21034;-71
2024/04/08 11:57:47;;;;;;;2.90;0.80;;;28.00;50.20;;;;;;2308137;54;21469;-71
2024/04/08 12:00:22;;;;;;;3.37;1.00;;;28.10;50.20;;;;;;2308333;54;20963;-70
2024/04/08 12:02:49;;;;;;;2.58;0.75;;;28.10;49.90;;;;;;2309076;53;20940;-70
2024/04/08 12:05:16;;;;;;;3.65;1.10;;;28.10;50.00;;;;;;2308759;54;21389;-71
2024/04/08 12:07:43;;;;;;;2.05;0.60;;;28.20;50.10;;;;;;2297498;54;21040;-71
2024/04/08 12:10:12;;;;;;;2.80;0.93;;;28.20;50.10;;;;;;2308632;54;21295;-71
2024/04/08 12:12:40;;;;;;;3.40;1.00;;;28.30;50.30;;;;;;2308133;55;21830;-70
2024/04/08 12:15:08;;;;;;;4.35;1.20;;;28.30;50.00;;;;;;2335288;53;20917;-71
2024/04/08 12:17:34;;;;;;;2.47;1.00;;;28.40;49.90;;;;;;2313570;53;20995;-71
2024/04/08 12:20:02;;;;;;;4.82;1.12;;;28.40;49.90;;;;;;2298807;54;21514;-70
2024/04/08 12:22:30;;;;;;;3.35;1.00;;;28.50;49.60;;;;;;2308652;54;20916;-70
2024/04/08 12:25:02;;;;;;;3.53;0.95;;;28.60;49.40;;;;;;2309060;54;20972;-72
2024/04/08 12:27:30;;;;;;;3.12;0.82;;;28.60;49.40;;;;;;2313308;54;21032;-70
2024/04/08 12:29:58;;;;;;;2.75;0.88;;;28.70;48.90;;;;;;2317830;54;21003;-70
2024/04/08 12:32:25;;;;;;;3.17;0.70;;;28.80;48.90;;;;;;2308907;54;21005;-71
2024/04/08 12:34:54;;;;;;;3.00;0.70;;;28.80;48.80;;;;;;2314121;53;20972;-70
2024/04/08 12:37:21;;;;;;;2.40;0.60;;;28.90;48.70;;;;;;2287583;54;21475;-71
2024/04/08 12:39:56;;;;;;;3.47;0.75;;;29.00;48.70;;;;;;2292982;55;21014;-71
2024/04/08 12:42:22;;;;;;;3.67;1.08;;;29.00;48.50;;;;;;2297880;54;20954;-70
2024/04/08 12:44:52;;;;;;;3.00;0.80;;;29.10;48.00;;;;;;2332674;53;20961;-71